Silver City, NM

4:15 AM MDT on August 30, 2014 (GMT -0600)
Deming Municipal | Change Station
CLOSE
Current Station
Airport
Location: Deming,
Elevation: 4311 ft
Nearby Weather Stations

Elev 4311 ft 32.26 °N, 107.72 °W | Updated 22 minutes ago

Mostly Cloudy
Mostly Cloudy
71 °F
Feels Like 71 °F
N
9
Wind Variable Wind from NW

Today
High -- | Low -- °F
--% Chance of Precip.
Yesterday
High -- | Low -- °F
Precip. -- in
6:46 AM 7:39 PM
Waxing Crescent, 21% visible
Pressure 29.80 in
Visibility 10.0 miles
Clouds Mostly Cloudy 12000 ft
Dew Point 44 °F
Humidity 38%
Rainfall 0.00 in
Snow Depth Not available.
UV 0 out of 12
Pollen 8.00 out of 12
Air Quality Not available.
Flu Activity Not available.
METAR KDMN 300953Z AUTO 31008KT 10SM BKN120 22/07 A3005 RMK AO2 SLP089 T02170067

More Conditions Fewer Conditions

Pressure 29.80 in
Visibility 10.0 miles
Clouds Mostly Cloudy 12000 ft
Dew Point 44 °F
Humidity 38%
Rainfall 0.00 in
Snow Depth Not available.
UV 0 out of 12
Pollen 8.00 out of 12
Air Quality Not available.
Flu Activity Not available.
METAR KDMN 300953Z AUTO 31008KT 10SM BKN120 22/07 A3005 RMK AO2 SLP089 T02170067

More Conditions Fewer Conditions

10-Day Weather Forecast

Almanac

Astronomy

Aug. 30, 2014 Rise Set
Actual Time 6:46 AM MDT 7:39 PM MDT
Civil Twilight 6:20 AM MDT 8:05 PM MDT
Nautical Twilight 5:51 AM MDT 8:34 PM MDT
Astronomical Twilight 5:20 AM MDT 9:05 PM MDT
Moon 11:19 AM MDT 10:34 PM MDT
Length of Visible Light 13h 44m
Length of Day
12h 53m
Tomorrow will be 1m 56s shorter.
Waxing Crescent, 21% of the Moon is Illuminated
Today
Waxing Crescent
Sep 2
First Quarter
Sep 8
Full
Sep 15
Last Quarter
Sep 24
New

Today's Extremes

State Highs State Lows

Community

WunderPhotos

Upload Photos

1,748,481 photos uploaded!

Nearby

Snow Depth

Station Depth Elevation
McKnight Cabin 0 in 9240 ft
Silver Creek Divide 16 in 9000 ft
Sierra Blanca 2 in 10280 ft
Rice Park 0 in 8460 ft
Senorita Divide #2 0 in 8600 ft

Earthquake Activity

City Distance Mag. Time & Date
No recent earthquake activity has been reported nearby.
Minimum magnitude displayed is 2.5.

Coastal Water Temperatures

Place Temperature
No Stations Reporting

Nearby Weather Stations